Time;durP1;ratioP1;P1;durP2;ratioP2;P2;SDS_P1;SDS_P2;PMS_P1;PMS_P2;Temp;Humidity;BMP_temperature;BMP_pressure;BME280_temperature;BME280_humidity;BME280_pressure;Samples;Min_cycle;Max_cycle;Signal;HPM_P1;HPM_P2
2023/01/07 00:00:05;;;;;;;7.70;4.03;;;;;;;3.90;100.00;101725.03;5018820;28;20282;-75
2023/01/07 00:02:37;;;;;;;6.07;4.00;;;;;;;3.89;100.00;101723.28;5013203;28;20206;-75
2023/01/07 00:05:03;;;;;;;7.00;3.83;;;;;;;3.92;100.00;101726.00;5017610;28;20191;-76
2023/01/07 00:07:28;;;;;;;6.17;4.97;;;;;;;3.97;100.00;101725.50;5017099;28;20607;-75
2023/01/07 00:09:54;;;;;;;9.60;5.27;;;;;;;4.05;100.00;101719.22;5013559;28;20607;-75
2023/01/07 00:12:19;;;;;;;9.07;5.03;;;;;;;4.08;100.00;101715.97;4994422;28;20191;-76
2023/01/07 00:14:44;;;;;;;9.30;5.50;;;;;;;4.10;100.00;101722.88;4994381;28;20219;-75
2023/01/07 00:17:10;;;;;;;13.23;6.33;;;;;;;4.13;100.00;101717.13;5015290;28;20222;-75
2023/01/07 00:19:35;;;;;;;10.53;6.43;;;;;;;4.17;100.00;101709.81;5012958;28;20646;-75
2023/01/07 00:22:01;;;;;;;10.77;6.97;;;;;;;4.20;100.00;101716.72;5010069;28;20708;-75
2023/01/07 00:24:26;;;;;;;13.10;6.80;;;;;;;4.20;100.00;101707.47;5007967;28;20186;-75
2023/01/07 00:26:51;;;;;;;14.43;7.70;;;;;;;4.22;100.00;101716.03;5015347;28;20688;-75
2023/01/07 00:29:18;;;;;;;14.53;7.23;;;;;;;4.22;100.00;101707.53;4998046;28;20616;-75
2023/01/07 00:31:43;;;;;;;10.37;7.47;;;;;;;4.16;100.00;101718.22;4991225;28;20283;-75
2023/01/07 00:34:09;;;;;;;11.70;7.40;;;;;;;4.13;100.00;101712.06;5017463;28;20218;-76
2023/01/07 00:36:41;;;;;;;11.67;6.87;;;;;;;4.09;100.00;101711.00;5012639;28;20190;-76
2023/01/07 00:39:12;;;;;;;11.97;6.77;;;;;;;4.08;100.00;101708.38;5013413;28;20211;-75
2023/01/07 00:41:38;;;;;;;10.57;7.10;;;;;;;4.07;100.00;101699.94;5013558;28;20198;-75
2023/01/07 00:44:05;;;;;;;14.53;7.30;;;;;;;4.09;100.00;101702.56;5003669;28;20192;-77
2023/01/07 00:46:31;;;;;;;14.33;8.67;;;;;;;4.13;100.00;101712.06;5017463;28;20801;-76
2023/01/07 00:48:58;;;;;;;12.07;7.10;;;;;;;4.13;100.00;101700.28;4998355;28;20242;-75
2023/01/07 00:51:23;;;;;;;16.33;8.57;;;;;;;4.17;100.00;101711.47;5013486;28;20292;-75
2023/01/07 00:53:49;;;;;;;16.03;8.43;;;;;;;4.19;100.00;101708.22;5015084;28;20221;-75
2023/01/07 00:56:17;;;;;;;16.63;8.03;;;;;;;4.19;100.00;101705.69;5022437;28;20186;-75
2023/01/07 00:58:43;;;;;;;15.10;7.53;;;;;;;4.24;100.00;101704.28;4986281;28;20326;-75
2023/01/07 01:01:10;;;;;;;14.73;8.83;;;;;;;4.33;100.00;101709.03;5003374;28;20264;-75
2023/01/07 01:03:36;;;;;;;16.67;8.93;;;;;;;4.36;100.00;101710.09;5000428;28;20187;-75
2023/01/07 01:06:04;;;;;;;19.73;10.03;;;;;;;4.40;100.00;101704.41;4992821;28;20195;-75
2023/01/07 01:08:30;;;;;;;22.13;10.37;;;;;;;4.45;100.00;101699.59;5017035;28;20222;-75
2023/01/07 01:11:02;;;;;;;17.47;9.77;;;;;;;4.49;100.00;101693.91;5013630;28;20243;-75
2023/01/07 01:13:27;;;;;;;21.27;11.30;;;;;;;4.55;100.00;101695.13;5013791;28;20245;-75
2023/01/07 01:15:52;;;;;;;19.47;11.53;;;;;;;4.59;100.00;101696.19;4999019;28;20620;-75
2023/01/07 01:18:18;;;;;;;23.90;12.43;;;;;;;4.69;100.00;101690.88;4994230;28;20293;-75
2023/01/07 01:20:43;;;;;;;22.33;12.40;;;;;;;4.72;100.00;101686.81;5017253;28;20647;-76
2023/01/07 01:23:09;;;;;;;23.90;12.97;;;;;;;4.73;100.00;101673.34;4991711;28;20644;-75
2023/01/07 01:25:34;;;;;;;23.97;13.63;;;;;;;4.73;100.00;101670.81;5000244;28;20201;-76
2023/01/07 01:28:00;;;;;;;26.07;13.20;;;;;;;4.73;100.00;101683.50;5007569;28;20683;-75
2023/01/07 01:30:25;;;;;;;20.43;12.07;;;;;;;4.72;100.00;101680.88;4998077;28;20303;-75
2023/01/07 01:32:50;;;;;;;24.67;12.37;;;;;;;4.70;100.00;101680.78;4990567;28;20234;-75
2023/01/07 01:35:16;;;;;;;20.53;11.73;;;;;;;4.69;100.00;101680.72;4999388;28;20195;-75
2023/01/07 01:37:42;;;;;;;23.07;12.27;;;;;;;4.70;100.00;101683.31;5001776;28;20245;-75
2023/01/07 01:40:09;;;;;;;20.63;12.90;;;;;;;4.70;100.00;101693.44;5023432;28;20642;-75
2023/01/07 01:42:34;;;;;;;23.67;12.47;;;;;;;4.72;100.00;101680.88;4998608;28;20202;-76
2023/01/07 01:45:04;;;;;;;26.43;14.93;;;;;;;4.78;100.00;101673.63;4999987;28;20192;-75
2023/01/07 01:47:45;;;;;;;28.73;15.53;;;;;;;4.88;100.00;101673.34;5000906;28;20215;-75
2023/01/07 01:50:28;;;;;;;24.73;14.47;;;;;;;4.93;100.00;101666.84;4992288;28;20191;-76
2023/01/07 01:53:22;;;;;;;27.20;15.30;;;;;;;4.99;100.00;101662.09;5017531;28;20227;-75
2023/01/07 01:56:00;;;;;;;31.23;15.63;;;;;;;5.06;100.00;101666.72;4991239;28;20843;-75
2023/01/07 01:58:36;;;;;;;29.67;16.13;;;;;;;5.13;100.00;101666.25;4995896;28;20218;-76
2023/01/07 02:01:02;;;;;;;31.37;17.17;;;;;;;5.13;100.00;101653.56;4990931;28;20195;-75
2023/01/07 02:03:32;;;;;;;32.73;17.73;;;;;;;5.13;100.00;101656.97;4994092;28;20222;-76
2023/01/07 02:05:59;;;;;;;31.67;17.47;;;;;;;5.16;100.00;101656.28;4999872;28;20287;-75
2023/01/07 02:08:25;;;;;;;29.33;16.80;;;;;;;5.19;100.00;101662.38;5002761;28;20329;-76
2023/01/07 02:11:05;;;;;;;36.63;18.80;;;;;;;5.28;100.00;101651.81;4981205;28;20198;-75
2023/01/07 02:13:45;;;;;;;39.67;20.47;;;;;;;5.35;100.00;101652.22;4993571;28;20223;-76
2023/01/07 02:16:19;;;;;;;38.13;19.10;;;;;;;5.38;100.00;101651.56;4982940;28;20249;-76
2023/01/07 02:19:00;;;;;;;38.97;19.50;;;;;;;5.46;100.00;101642.66;5001389;28;20214;-75
2023/01/07 02:21:57;;;;;;;39.27;19.80;;;;;;;5.46;100.00;101646.06;4978235;28;20195;-75
2023/01/07 02:24:43;;;;;;;40.63;20.23;;;;;;;5.46;100.00;101647.72;5014951;28;20201;-75
2023/01/07 02:27:20;;;;;;;38.83;19.43;;;;;;;5.45;100.00;101639.25;4990016;28;20281;-75
2023/01/07 02:29:55;;;;;;;39.37;19.27;;;;;;;5.46;100.00;101638.44;5000204;28;20248;-76
2023/01/07 02:32:33;;;;;;;39.33;21.23;;;;;;;5.48;100.00;101630.91;5010285;28;20206;-76
2023/01/07 02:35:18;;;;;;;43.23;20.77;;;;;;;5.50;100.00;101632.75;4996953;28;20345;-75
2023/01/07 02:38:09;;;;;;;42.47;21.43;;;;;;;5.52;100.00;101625.22;4995475;28;20214;-75
2023/01/07 02:40:41;;;;;;;41.30;21.93;;;;;;;5.56;100.00;101627.09;5009326;28;20191;-75
2023/01/07 02:43:35;;;;;;;42.30;22.33;;;;;;;5.60;100.00;101629.88;5014602;28;20542;-76
2023/01/07 02:46:15;;;;;;;40.60;20.97;;;;;;;5.63;100.00;101617.34;4989135;28;20225;-75
2023/01/07 02:48:42;;;;;;;39.03;20.77;;;;;;;5.66;100.00;101612.41;4978491;28;20218;-75
2023/01/07 02:51:08;;;;;;;44.23;22.73;;;;;;;5.67;100.00;101605.66;4995113;28;20690;-75
2023/01/07 02:53:34;;;;;;;41.10;20.67;;;;;;;5.69;100.00;101602.41;4992206;28;20296;-75
2023/01/07 02:56:15;;;;;;;39.40;21.20;;;;;;;5.69;100.00;101591.38;5013411;28;20191;-75
2023/01/07 02:58:51;;;;;;;40.70;21.27;;;;;;;5.70;100.00;101582.94;5015313;28;20568;-76
2023/01/07 03:01:19;;;;;;;42.90;22.70;;;;;;;5.71;100.00;101582.16;5000531;28;20233;-76
2023/01/07 03:04:03;;;;;;;44.47;24.00;;;;;;;5.79;100.00;101583.41;4995685;28;20192;-75
2023/01/07 03:06:53;;;;;;;46.40;24.03;;;;;;;5.79;100.00;101597.00;5012502;28;20195;-75
2023/01/07 03:09:43;;;;;;;49.43;23.93;;;;;;;5.83;100.00;101598.94;4997371;28;20236;-75
2023/01/07 03:12:23;;;;;;;48.00;25.00;;;;;;;5.83;100.00;101598.94;5017446;28;20241;-76
2023/01/07 03:15:27;;;;;;;47.23;23.43;;;;;;;5.88;100.00;101591.53;5018474;28;20218;-75
2023/01/07 03:18:12;;;;;;;50.60;24.20;;;;;;;5.89;100.00;101593.28;4990249;28;20218;-75
2023/01/07 03:20:40;;;;;;;54.20;25.10;;;;;;;5.88;100.00;101584.78;4997184;28;20660;-75
2023/01/07 03:23:09;;;;;;;45.33;24.47;;;;;;;5.91;100.00;101576.44;4997052;28;20202;-76
2023/01/07 03:25:42;;;;;;;55.97;26.73;;;;;;;6.00;100.00;101567.59;5001817;28;20199;-76
2023/01/07 03:28:09;;;;;;;52.70;25.33;;;;;;;6.08;100.00;101566.28;5020410;28;20301;-75
2023/01/07 03:30:37;;;;;;;51.90;25.80;;;;;;;6.13;100.00;101575.00;4997402;28;20200;-75
2023/01/07 03:33:12;;;;;;;56.57;26.30;;;;;;;6.17;100.00;101566.72;5000011;28;20221;-75
2023/01/07 03:35:41;;;;;;;52.50;27.13;;;;;;;6.16;100.00;101572.63;4997387;28;20665;-76
2023/01/07 03:38:08;;;;;;;51.63;26.13;;;;;;;6.19;100.00;101572.78;4985985;28;20941;-76
2023/01/07 03:40:34;;;;;;;56.33;27.20;;;;;;;6.25;100.00;101569.63;5003050;28;20329;-76
2023/01/07 03:42:59;;;;;;;56.37;28.50;;;;;;;6.33;100.00;101566.69;4996579;28;20200;-75
2023/01/07 03:45:27;;;;;;;55.70;26.80;;;;;;;6.32;100.00;101571.69;5014874;28;20424;-75
2023/01/07 03:47:56;;;;;;;54.47;26.50;;;;;;;6.31;100.00;101572.50;4978077;28;20206;-76
2023/01/07 03:50:24;;;;;;;57.63;28.20;;;;;;;6.34;100.00;101557.38;4992051;28;20307;-75
2023/01/07 03:52:51;;;;;;;54.30;26.37;;;;;;;6.34;100.00;101558.25;4993921;28;20193;-76
2023/01/07 03:55:18;;;;;;;48.97;25.00;;;;;;;6.35;100.00;101557.44;5013733;28;20194;-76
2023/01/07 03:57:45;;;;;;;48.10;24.70;;;;;;;6.33;100.00;101555.63;4980843;28;20261;-75
2023/01/07 04:00:12;;;;;;;51.23;24.40;;;;;;;6.33;100.00;101551.44;4998934;28;20195;-76
2023/01/07 04:02:46;;;;;;;45.83;23.87;;;;;;;6.34;100.00;101550.63;4989977;28;20671;-76
2023/01/07 04:05:21;;;;;;;48.40;25.40;;;;;;;6.36;100.00;101548.16;4990127;28;20225;-76
2023/01/07 04:07:47;;;;;;;45.63;23.40;;;;;;;6.37;100.00;101557.53;4995990;28;20237;-76
2023/01/07 04:10:12;;;;;;;44.17;23.83;;;;;;;6.37;100.00;101544.81;4987653;28;20194;-76
2023/01/07 04:12:38;;;;;;;41.77;22.47;;;;;;;6.38;100.00;101544.00;4997756;28;20199;-75
2023/01/07 04:15:04;;;;;;;44.77;23.13;;;;;;;6.37;100.00;101540.59;4997092;28;20203;-76
2023/01/07 04:17:30;;;;;;;46.37;24.43;;;;;;;6.38;100.00;101534.72;4998518;28;20244;-76
2023/01/07 04:19:56;;;;;;;42.87;22.70;;;;;;;6.41;100.00;101539.06;5013280;28;20201;-76
2023/01/07 04:22:22;;;;;;;49.50;24.70;;;;;;;6.44;100.00;101529.91;5013297;28;20676;-76
2023/01/07 04:24:47;;;;;;;39.17;22.30;;;;;;;6.48;100.00;101533.44;4998341;28;20194;-75
2023/01/07 04:27:15;;;;;;;46.13;22.73;;;;;;;6.51;100.00;101536.16;4984700;28;20194;-75
2023/01/07 04:29:41;;;;;;;47.87;24.83;;;;;;;6.54;100.00;101532.06;4992644;28;20296;-75
2023/01/07 04:32:06;;;;;;;47.73;23.90;;;;;;;6.57;100.00;101523.69;4996969;28;20278;-76
2023/01/07 04:34:32;;;;;;;47.70;24.87;;;;;;;6.60;100.00;101521.31;5012108;28;20221;-76
2023/01/07 04:36:58;;;;;;;43.60;23.80;;;;;;;6.64;100.00;101526.59;4978978;28;20278;-75
2023/01/07 04:39:23;;;;;;;47.10;23.53;;;;;;;6.68;100.00;101527.63;4995240;28;20205;-75
2023/01/07 04:41:49;;;;;;;46.47;24.53;;;;;;;6.71;100.00;101526.09;5013499;28;20204;-76
2023/01/07 04:44:16;;;;;;;52.03;26.13;;;;;;;6.76;100.00;101516.09;5003924;28;20274;-75
2023/01/07 04:46:42;;;;;;;49.77;26.30;;;;;;;6.80;100.00;101515.44;4970164;28;20199;-75
2023/01/07 04:49:08;;;;;;;45.60;25.53;;;;;;;6.81;100.00;101520.59;4994967;28;20211;-75
2023/01/07 04:51:34;;;;;;;49.97;25.87;;;;;;;6.85;100.00;101517.41;4975555;28;20692;-76
2023/01/07 04:53:59;;;;;;;51.07;26.10;;;;;;;6.88;100.00;101517.53;4996020;28;20251;-75
2023/01/07 04:56:25;;;;;;;50.07;25.13;;;;;;;6.90;100.00;101512.50;5012773;28;20301;-76
2023/01/07 04:58:50;;;;;;;50.10;25.57;;;;;;;6.93;100.00;101515.19;5012529;28;20217;-75
2023/01/07 05:01:17;;;;;;;47.87;24.87;;;;;;;6.96;100.00;101505.16;5011425;28;20255;-75
2023/01/07 05:03:42;;;;;;;50.77;25.77;;;;;;;7.05;100.00;101506.41;4989128;28;20188;-76
2023/01/07 05:06:08;;;;;;;51.23;26.73;;;;;;;7.17;100.00;101499.31;5014475;28;20191;-76
2023/01/07 05:08:34;;;;;;;48.57;25.67;;;;;;;7.23;100.00;101501.28;4995075;28;20215;-76
2023/01/07 05:11:02;;;;;;;58.73;28.23;;;;;;;7.22;100.00;101500.38;4991951;28;20839;-76
2023/01/07 05:13:30;;;;;;;49.47;26.70;;;;;;;7.25;100.00;101505.63;4995621;28;20240;-76
2023/01/07 05:15:56;;;;;;;54.63;27.30;;;;;;;7.36;100.00;101498.41;4991372;28;20206;-75
2023/01/07 05:18:22;;;;;;;53.80;28.47;;;;;;;7.43;100.00;101498.75;5000058;28;20238;-75
2023/01/07 05:20:47;;;;;;;52.40;26.83;;;;;;;7.46;100.00;101500.56;4993562;28;20281;-75
2023/01/07 05:23:13;;;;;;;52.93;26.60;;;;;;;7.58;100.00;101508.72;5006458;28;20179;-76
2023/01/07 05:25:39;;;;;;;50.77;26.80;;;;;;;7.54;100.00;101505.16;4992048;28;20569;-76
2023/01/07 05:28:04;;;;;;;54.70;27.83;;;;;;;7.69;100.00;101502.41;4989646;28;20208;-76
2023/01/07 05:30:33;;;;;;;54.93;27.77;;;;;;;7.74;100.00;101495.81;4990339;28;20712;-76
2023/01/07 05:32:58;;;;;;;58.30;29.10;;;;;;;7.77;100.00;101494.25;4975277;28;20199;-76
2023/01/07 05:35:25;;;;;;;53.47;27.27;;;;;;;7.81;100.00;101498.66;4985372;28;20214;-76
2023/01/07 05:37:50;;;;;;;54.03;27.10;;;;;;;7.88;100.00;101497.25;4973378;28;20210;-76
2023/01/07 05:40:16;;;;;;;62.53;29.90;;;;;;;7.93;100.00;101488.09;5000198;28;20199;-75
2023/01/07 05:42:42;;;;;;;55.23;27.23;;;;;;;7.98;100.00;101495.13;4997871;28;20202;-76
2023/01/07 05:45:08;;;;;;;54.77;28.43;;;;;;;8.01;100.00;101494.38;4998340;28;20207;-76
2023/01/07 05:47:33;;;;;;;58.70;28.63;;;;;;;8.05;100.00;101494.53;5016419;28;20222;-76
2023/01/07 05:49:59;;;;;;;61.93;29.70;;;;;;;8.12;100.00;101494.00;5015706;28;20202;-75
2023/01/07 05:52:24;;;;;;;60.77;29.03;;;;;;;8.18;100.00;101490.78;5016314;28;20197;-76
2023/01/07 05:54:49;;;;;;;55.33;28.50;;;;;;;8.24;100.00;101491.09;5011084;28;20213;-75
2023/01/07 05:57:15;;;;;;;61.00;31.83;;;;;;;8.28;100.00;101490.34;5013931;28;20199;-76
2023/01/07 05:59:40;;;;;;;63.80;32.53;;;;;;;8.26;100.00;101494.53;5014425;28;20690;-76
2023/01/07 06:02:06;;;;;;;67.33;32.17;;;;;;;8.25;100.00;101491.13;4995628;28;20206;-76
2023/01/07 06:04:33;;;;;;;72.13;32.97;;;;;;;8.30;100.00;101501.50;5003835;28;20455;-75
2023/01/07 06:06:59;;;;;;;68.17;32.30;;;;;;;8.31;100.00;101490.50;5009006;28;20583;-76
2023/01/07 06:09:25;;;;;;;69.73;32.03;;;;;;;8.31;100.00;101493.94;5015713;28;20202;-76
2023/01/07 06:11:50;;;;;;;66.80;31.90;;;;;;;8.43;100.00;101488.41;5010995;28;20192;-75
2023/01/07 06:14:16;;;;;;;68.23;32.03;;;;;;;8.42;100.00;101489.22;4993533;28;21035;-76
2023/01/07 06:16:41;;;;;;;65.23;31.43;;;;;;;8.45;100.00;101490.22;5017956;28;20659;-76
2023/01/07 06:19:06;;;;;;;78.43;34.40;;;;;;;8.45;100.00;101489.34;5010693;28;20325;-76
2023/01/07 06:21:32;;;;;;;67.77;32.13;;;;;;;8.48;100.00;101495.41;4979094;28;20831;-75
2023/01/07 06:23:57;;;;;;;65.43;32.37;;;;;;;8.49;100.00;101493.75;4997265;28;20191;-76
2023/01/07 06:26:23;;;;;;;65.97;31.27;;;;;;;8.50;100.00;101485.28;5000088;28;20186;-76
2023/01/07 06:28:50;;;;;;;59.13;31.10;;;;;;;8.56;100.00;101491.47;5010746;28;20213;-75
2023/01/07 06:31:16;;;;;;;62.30;33.63;;;;;;;8.55;100.00;101473.56;5005017;28;20664;-76
2023/01/07 06:33:41;;;;;;;65.93;32.80;;;;;;;8.57;100.00;101477.91;4997938;28;20218;-75
2023/01/07 06:36:07;;;;;;;61.70;31.77;;;;;;;8.60;100.00;101477.13;5014609;28;20195;-75
2023/01/07 06:38:32;;;;;;;63.70;33.47;;;;;;;8.67;100.00;101462.09;5018923;28;20268;-75
2023/01/07 06:40:58;;;;;;;60.87;31.67;;;;;;;8.68;100.00;101475.75;5008027;28;20246;-75
2023/01/07 06:43:24;;;;;;;60.03;30.83;;;;;;;8.66;100.00;101480.78;5010323;28;20203;-75
2023/01/07 06:45:50;;;;;;;63.67;33.20;;;;;;;8.72;100.00;101477.59;5010139;28;20619;-76
2023/01/07 06:48:15;;;;;;;56.33;29.33;;;;;;;8.73;100.00;101481.91;5013207;28;20211;-75
2023/01/07 06:50:42;;;;;;;57.63;29.83;;;;;;;8.76;100.00;101480.31;5020475;28;20735;-76
2023/01/07 06:53:07;;;;;;;58.83;31.40;;;;;;;8.82;100.00;101479.69;5013712;28;20219;-75
2023/01/07 06:55:33;;;;;;;59.03;31.23;;;;;;;8.87;100.00;101484.16;5005157;28;20256;-75
2023/01/07 06:57:58;;;;;;;62.17;32.57;;;;;;;8.89;100.00;101477.41;5002991;28;20223;-75
2023/01/07 07:00:24;;;;;;;61.37;32.07;;;;;;;8.89;100.00;101481.66;5017450;28;20202;-76
2023/01/07 07:02:49;;;;;;;56.77;31.33;;;;;;;8.87;100.00;101479.03;4998139;28;20205;-76
2023/01/07 07:05:15;;;;;;;56.83;30.90;;;;;;;8.89;100.00;101486.75;5011042;28;20552;-75
2023/01/07 07:07:40;;;;;;;55.00;30.67;;;;;;;8.94;100.00;101488.66;5019329;28;20213;-75
2023/01/07 07:10:07;;;;;;;53.47;30.50;;;;;;;8.95;100.00;101484.41;4995186;28;20469;-75
2023/01/07 07:12:34;;;;;;;58.60;32.07;;;;;;;8.95;100.00;101484.41;5012172;28;20688;-75
2023/01/07 07:14:59;;;;;;;56.90;31.10;;;;;;;8.98;100.00;101487.09;5010064;28;20226;-75
2023/01/07 07:17:25;;;;;;;54.23;31.13;;;;;;;9.00;100.00;101482.91;5020410;28;20213;-75
2023/01/07 07:19:50;;;;;;;56.97;30.30;;;;;;;9.03;100.00;101483.88;4991681;28;20206;-75
2023/01/07 07:22:16;;;;;;;54.83;30.30;;;;;;;9.04;100.00;101488.16;5015268;28;20318;-75
2023/01/07 07:24:41;;;;;;;57.23;30.30;;;;;;;9.03;100.00;101494.09;5009145;28;20198;-76
2023/01/07 07:27:06;;;;;;;52.30;28.90;;;;;;;9.04;100.00;101485.59;5014065;28;20195;-76
2023/01/07 07:29:32;;;;;;;51.57;28.70;;;;;;;9.04;100.00;101487.31;5011862;28;20191;-75
2023/01/07 07:31:57;;;;;;;49.70;27.73;;;;;;;9.08;100.00;101487.44;5013958;28;20589;-75
2023/01/07 07:34:23;;;;;;;48.30;27.37;;;;;;;9.08;100.00;101489.16;5014744;28;20697;-76
2023/01/07 07:36:48;;;;;;;49.73;26.77;;;;;;;9.08;100.00;101484.91;5011020;28;20193;-75
2023/01/07 07:39:14;;;;;;;48.60;27.33;;;;;;;9.11;100.00;101484.13;4992479;28;20273;-75
2023/01/07 07:41:40;;;;;;;49.77;27.07;;;;;;;9.14;100.00;101484.25;5014568;28;20205;-75
2023/01/07 07:44:07;;;;;;;45.83;26.40;;;;;;;9.15;100.00;101486.88;4987428;28;20186;-75
2023/01/07 07:46:33;;;;;;;45.77;26.33;;;;;;;9.17;100.00;101484.38;4995618;28;20236;-76
2023/01/07 07:48:58;;;;;;;45.83;25.30;;;;;;;9.17;100.00;101475.00;5014133;28;20230;-75
2023/01/07 07:51:24;;;;;;;43.70;26.13;;;;;;;9.20;100.00;101479.34;4998793;28;20696;-75
2023/01/07 07:53:49;;;;;;;43.30;25.50;;;;;;;9.21;100.00;101471.75;4994792;28;20215;-76
2023/01/07 07:56:15;;;;;;;42.07;25.90;;;;;;;9.23;100.00;101475.25;5005070;28;20196;-76
2023/01/07 07:58:41;;;;;;;38.00;24.23;;;;;;;9.22;100.00;101472.63;5002033;28;20219;-78
2023/01/07 08:01:08;;;;;;;38.13;24.07;;;;;;;9.21;100.00;101476.00;5010906;28;20665;-76
2023/01/07 08:03:34;;;;;;;41.80;24.37;;;;;;;9.21;100.00;101468.34;4989720;28;20672;-77
2023/01/07 08:05:59;;;;;;;40.07;24.23;;;;;;;9.23;100.00;101462.47;4991804;28;20238;-77
2023/01/07 08:08:25;;;;;;;41.23;26.77;;;;;;;9.29;100.00;101461.78;5007665;28;20268;-76
2023/01/07 08:10:53;;;;;;;41.87;26.80;;;;;;;9.27;100.00;101464.28;4978127;28;20206;-77
2023/01/07 08:13:19;;;;;;;39.77;25.37;;;;;;;9.29;100.00;101456.66;5008174;28;20581;-77
2023/01/07 08:15:46;;;;;;;43.87;28.40;;;;;;;9.29;100.00;101454.13;4992224;28;20198;-77
2023/01/07 08:18:11;;;;;;;39.33;25.40;;;;;;;9.31;100.00;101458.47;5003386;28;20207;-77
2023/01/07 08:20:37;;;;;;;40.67;26.00;;;;;;;9.32;100.00;101459.34;5000977;28;20559;-77
2023/01/07 08:23:04;;;;;;;40.80;26.23;;;;;;;9.31;100.00;101461.00;5002507;28;20199;-77
2023/01/07 08:25:31;;;;;;;40.80;26.80;;;;;;;9.33;100.00;101459.41;5003407;28;20606;-77
2023/01/07 08:27:58;;;;;;;40.50;25.67;;;;;;;9.33;100.00;101461.06;5005688;28;20215;-77
2023/01/07 08:30:24;;;;;;;36.07;23.87;;;;;;;9.37;100.00;101458.69;4986577;28;20229;-78
2023/01/07 08:32:50;;;;;;;35.37;23.50;;;;;;;9.39;100.00;101462.16;4999067;28;20583;-78
2023/01/07 08:35:16;;;;;;;36.70;23.53;;;;;;;9.44;100.00;101462.31;4983481;28;20206;-78
2023/01/07 08:37:42;;;;;;;31.73;22.13;;;;;;;9.44;100.00;101457.22;4999027;28;20704;-78
2023/01/07 08:40:09;;;;;;;35.63;24.53;;;;;;;9.43;100.00;101455.44;5000978;28;20184;-77
2023/01/07 08:42:34;;;;;;;35.10;23.53;;;;;;;9.44;100.00;101447.84;5012500;28;20265;-77
2023/01/07 08:45:00;;;;;;;35.70;23.67;;;;;;;9.49;100.00;101460.78;4972710;28;20195;-77
2023/01/07 08:47:29;;;;;;;35.40;24.60;;;;;;;9.51;100.00;101456.59;5007084;28;20225;-77
2023/01/07 08:49:55;;;;;;;37.40;25.43;;;;;;;9.54;100.00;101449.03;4997832;28;20194;-77
2023/01/07 08:52:21;;;;;;;36.40;25.87;;;;;;;9.55;100.00;101446.53;4995237;28;20755;-76
2023/01/07 08:54:47;;;;;;;36.40;26.40;;;;;;;9.58;100.00;101443.19;5001825;28;20219;-77
2023/01/07 08:57:13;;;;;;;34.47;24.37;;;;;;;9.61;100.00;101446.72;5010965;28;20191;-77
2023/01/07 08:59:39;;;;;;;35.97;23.57;;;;;;;9.64;100.00;101446.78;5005887;28;20194;-77
2023/01/07 09:02:18;;;;;;;31.23;21.30;;;;;;;9.67;100.00;101438.38;5000861;28;20196;-77
2023/01/07 09:04:43;;;;;;;33.47;22.50;;;;;;;9.71;100.00;101441.06;4999976;28;20233;-78
2023/01/07 09:07:09;;;;;;;35.00;22.27;;;;;;;9.77;100.00;101438.72;5000990;28;20726;-77
2023/01/07 09:09:35;;;;;;;28.53;20.27;;;;;;;9.81;100.00;101440.53;4989581;28;20198;-77
2023/01/07 09:12:02;;;;;;;26.27;19.20;;;;;;;9.82;100.00;101441.44;5003326;28;20195;-78
2023/01/07 09:14:27;;;;;;;26.13;19.07;;;;;;;9.81;100.00;101439.69;5001164;28;20300;-77
2023/01/07 09:16:53;;;;;;;24.07;17.30;;;;;;;9.82;100.00;101443.97;5007932;28;20665;-77
2023/01/07 09:19:18;;;;;;;21.80;16.07;;;;;;;9.83;100.00;101436.38;4991690;28;20769;-78
2023/01/07 09:21:44;;;;;;;24.03;17.40;;;;;;;9.85;100.00;101437.28;5010591;28;20694;-77
2023/01/07 09:24:09;;;;;;;22.83;15.83;;;;;;;9.88;100.00;101442.50;4988004;28;20188;-77
2023/01/07 09:26:35;;;;;;;24.87;16.93;;;;;;;9.93;100.00;101432.38;4976199;28;20565;-77
2023/01/07 09:29:01;;;;;;;20.20;14.60;;;;;;;10.00;100.00;101436.91;4987401;28;20219;-77
2023/01/07 09:31:26;;;;;;;21.60;15.20;;;;;;;10.05;100.00;101443.06;4996637;28;20198;-78
2023/01/07 09:33:52;;;;;;;17.47;13.43;;;;;;;10.11;100.00;101444.09;5013058;28;20233;-77
2023/01/07 09:36:17;;;;;;;21.43;15.07;;;;;;;10.16;100.00;101446.78;5011108;28;20195;-76
2023/01/07 09:38:43;;;;;;;17.43;13.17;;;;;;;10.28;100.00;101439.50;5009632;28;20217;-77
2023/01/07 09:41:47;;;;;;;18.23;14.17;;;;;;;10.47;100.00;101440.06;5010837;28;20192;-76
2023/01/07 09:44:24;;;;;;;14.30;11.73;;;;;;;10.63;100.00;101433.69;4926456;29;20216;-77
2023/01/07 09:46:52;;;;;;;15.23;11.37;;;;;;;10.86;100.00;101438.66;4932189;29;20820;-77
2023/01/07 09:49:18;;;;;;;11.80;10.00;;;;;;;10.92;100.00;101428.56;4972864;28;20234;-76
2023/01/07 09:51:54;;;;;;;10.80;9.70;;;;;;;11.05;100.00;101433.19;4990599;28;20207;-77
2023/01/07 09:54:34;;;;;;;9.90;8.43;;;;;;;11.19;100.00;101425.84;4990665;28;20294;-77
2023/01/07 09:57:00;;;;;;;8.70;7.83;;;;;;;11.32;100.00;101428.78;4983602;28;20214;-76
2023/01/07 09:59:26;;;;;;;8.40;5.87;;;;;;;11.49;100.00;101432.66;4996646;28;20196;-72
2023/01/07 10:02:13;;;;;;;6.20;5.60;;;;;;;11.50;100.00;101434.38;5012773;28;20972;-71
2023/01/07 10:04:51;;;;;;;6.13;4.57;;;;;;;11.63;100.00;101422.75;4995486;28;20198;-71
2023/01/07 10:07:40;;;;;;;5.83;4.53;;;;;;;11.54;100.00;101419.94;4994158;28;20707;-71
2023/01/07 10:10:16;;;;;;;5.07;4.57;;;;;;;11.48;100.00;101423.22;5005540;28;20208;-71
2023/01/07 10:13:23;;;;;;;4.87;4.37;;;;;;;11.64;100.00;101409.09;5015834;28;20218;-71
2023/01/07 10:16:17;;;;;;;4.60;4.00;;;;;;;11.58;100.00;101417.50;4961978;28;20683;-71
2023/01/07 10:19:02;;;;;;;4.30;3.90;;;;;;;11.74;100.00;101413.59;5022800;28;20304;-70
2023/01/07 10:21:56;;;;;;;4.73;4.23;;;;;;;11.94;99.01;101402.13;5022729;28;20187;-71
2023/01/07 10:24:26;;;;;;;5.83;3.17;;;;;;;12.16;97.22;101405.19;5019998;28;20183;-75
2023/01/07 10:27:00;;;;;;;3.40;2.70;;;;;;;12.41;96.18;101404.91;5007500;28;20750;-75
2023/01/07 10:29:42;;;;;;;3.07;2.87;;;;;;;12.60;95.19;101395.84;5008190;28;20203;-76
2023/01/07 10:32:20;;;;;;;2.93;2.50;;;;;;;12.65;93.16;101401.94;5003662;28;20997;-75
2023/01/07 10:34:49;;;;;;;3.57;2.53;;;;;;;13.37;91.53;101397.31;5006851;28;20785;-77
2023/01/07 10:37:30;;;;;;;2.67;2.47;;;;;;;13.82;88.92;101390.34;4987425;28;20195;-76
2023/01/07 10:40:11;;;;;;;2.87;2.10;;;;;;;15.18;82.30;101389.50;5010041;28;20190;-75
2023/01/07 10:42:54;;;;;;;2.33;2.13;;;;;;;16.20;77.70;101385.13;4998093;28;20207;-76
2023/01/07 10:45:28;;;;;;;2.03;1.83;;;;;;;14.79;78.74;101401.13;4990258;28;20214;-76
2023/01/07 10:48:20;;;;;;;3.07;2.10;;;;;;;13.22;86.33;101386.78;5000138;28;20213;-76
2023/01/07 10:50:51;;;;;;;3.63;2.57;;;;;;;12.24;91.02;101397.66;5007709;28;20274;-75
2023/01/07 10:53:38;;;;;;;2.87;2.10;;;;;;;12.19;93.56;101392.44;4991752;28;20219;-76
2023/01/07 10:56:19;;;;;;;2.83;2.53;;;;;;;12.34;93.95;101389.31;5010370;28;20211;-76
2023/01/07 10:58:47;;;;;;;2.93;2.10;;;;;;;12.22;93.83;101389.91;5012010;28;20310;-76
2023/01/07 11:01:30;;;;;;;3.03;2.40;;;;;;;12.18;93.91;101382.13;4992285;28;20258;-76
2023/01/07 11:03:58;;;;;;;2.60;2.23;;;;;;;11.98;95.05;101370.56;5004877;28;20187;-76
2023/01/07 11:06:32;;;;;;;3.37;2.20;;;;;;;11.88;95.01;101366.03;5004069;28;20230;-75
2023/01/07 11:09:02;;;;;;;3.70;2.30;;;;;;;12.04;95.15;101373.25;5017237;28;20292;-76
2023/01/07 11:11:27;;;;;;;2.07;1.97;;;;;;;12.17;94.60;101360.72;5016732;28;20225;-76
2023/01/07 11:14:00;;;;;;;2.20;2.00;;;;;;;12.62;91.92;101358.19;5021390;28;20214;-75
2023/01/07 11:16:42;;;;;;;2.60;1.90;;;;;;;13.79;83.31;101347.41;5001874;28;20210;-75
2023/01/07 11:19:11;;;;;;;2.40;2.20;;;;;;;13.39;87.36;101354.50;5023730;28;20593;-76
2023/01/07 11:21:47;;;;;;;2.40;2.20;;;;;;;13.33;86.83;101344.09;4997374;28;20203;-76